createdAt,value
2022-11-16T00:08:10.838Z,99914.20
2022-11-16T00:18:12.637Z,99908.09
2022-11-16T00:28:15.099Z,99900.11
2022-11-16T00:38:16.895Z,99902.86
2022-11-16T00:48:19.131Z,99896.90
2022-11-16T00:58:21.268Z,99894.41
2022-11-16T01:08:29.500Z,99889.31
2022-11-16T01:18:31.620Z,99872.35
2022-11-16T01:28:34.104Z,99863.58
2022-11-16T01:38:36.972Z,99852.73
2022-11-16T01:48:39.725Z,99852.20
2022-11-16T01:58:43.616Z,99845.61
2022-11-16T02:09:21.529Z,99831.11
2022-11-16T02:19:32.534Z,99828.85
2022-11-16T02:29:52.840Z,99824.88
2022-11-16T02:40:00.760Z,99818.23
2022-11-16T02:50:10.093Z,99808.06
2022-11-16T03:00:19.486Z,99799.45
2022-11-16T03:10:41.216Z,99785.80
2022-11-16T03:20:43.853Z,99771.23
2022-11-16T03:31:14.402Z,99784.98
2022-11-16T03:41:18.513Z,99770.33
2022-11-16T03:51:20.362Z,99771.73
2022-11-16T04:01:22.335Z,99754.84
2022-11-16T04:11:43.573Z,99747.13
2022-11-16T04:22:15.421Z,99740.89
2022-11-16T04:32:36.040Z,99732.60
2022-11-16T04:42:37.846Z,99731.88
2022-11-16T04:52:39.609Z,99738.40
2022-11-16T05:02:42.481Z,99735.10
2022-11-16T05:12:44.361Z,99740.81
2022-11-16T05:22:53.727Z,99735.67
2022-11-16T05:32:55.892Z,99735.13
2022-11-16T05:42:58.935Z,99729.25
2022-11-16T05:53:01.289Z,99723.27
2022-11-16T06:03:03.382Z,99728.19
2022-11-16T06:13:06.664Z,99735.45
2022-11-16T06:23:08.706Z,99744.70
2022-11-16T06:33:10.913Z,99751.77
2022-11-16T06:43:12.965Z,99739.30
2022-11-16T06:54:11.951Z,99732.00
2022-11-16T07:04:19.579Z,99740.61
2022-11-16T07:14:25.460Z,99729.02
2022-11-16T07:24:27.248Z,99722.07
2022-11-16T07:34:30.413Z,99708.75
2022-11-16T07:44:44.191Z,99713.42
2022-11-16T07:54:45.959Z,99709.63
2022-11-16T08:04:49.772Z,99706.29
2022-11-16T08:14:54.382Z,99704.65
2022-11-16T08:24:56.201Z,99701.48
2022-11-16T08:34:58.457Z,99700.33
2022-11-16T08:45:00.291Z,99703.09
2022-11-16T08:55:03.880Z,99707.09
2022-11-16T09:05:07.418Z,99711.48
2022-11-16T09:15:09.389Z,99705.43
2022-11-16T09:25:11.047Z,99690.95
2022-11-16T09:35:12.960Z,99685.02
2022-11-16T09:45:29.029Z,99682.36
2022-11-16T09:55:41.777Z,99679.70
2022-11-16T10:05:54.758Z,99677.44
2022-11-16T10:16:01.858Z,99663.33
2022-11-16T10:26:28.494Z,99652.40
2022-11-16T10:36:32.176Z,99642.66
2022-11-16T10:46:43.750Z,99642.79
2022-11-16T10:56:51.116Z,99648.90
2022-11-16T11:06:59.039Z,99644.30
2022-11-16T11:17:11.780Z,99635.00
2022-11-16T11:27:21.867Z,99629.05
2022-11-16T11:37:33.504Z,99632.92
2022-11-16T11:48:26.096Z,99628.27
2022-11-16T11:58:36.421Z,99622.15
2022-11-16T12:08:38.004Z,99615.42
2022-11-16T12:19:09.998Z,99626.48
2022-11-16T12:29:23.377Z,99623.02
2022-11-16T12:39:35.243Z,99624.11
2022-11-16T12:49:46.040Z,99619.02
2022-11-16T13:00:18.461Z,99631.34
2022-11-16T13:10:34.832Z,99641.77
2022-11-16T13:20:54.958Z,99650.27
2022-11-16T13:31:05.645Z,99662.17
2022-11-16T13:41:30.199Z,99668.30
2022-11-16T13:51:31.932Z,99659.54
2022-11-16T14:01:54.905Z,99660.78
2022-11-16T14:11:58.584Z,99664.14
2022-11-16T14:22:15.598Z,99662.87
2022-11-16T14:32:27.064Z,99674.30
2022-11-16T14:42:48.138Z,99677.20
2022-11-16T14:53:00.835Z,99681.23
2022-11-16T15:03:05.047Z,99679.66
2022-11-16T15:13:07.300Z,99670.98
2022-11-16T15:23:14.138Z,99673.77
2022-11-16T15:33:23.975Z,99673.48
2022-11-16T15:43:49.694Z,99668.66
2022-11-16T15:54:54.196Z,99674.36
2022-11-16T16:04:56.292Z,99677.95
2022-11-16T16:15:23.332Z,99677.57
2022-11-16T16:25:30.596Z,99672.88
2022-11-16T16:35:32.364Z,99682.63
2022-11-16T16:45:38.212Z,99685.02
2022-11-16T16:55:42.100Z,99685.90
2022-11-16T17:05:44.106Z,99691.23
2022-11-16T17:15:45.763Z,99689.65
2022-11-16T17:25:47.567Z,99692.43
2022-11-16T17:35:56.329Z,99698.77
2022-11-16T17:46:07.175Z,99691.18
2022-11-16T17:56:10.634Z,99693.08
2022-11-16T18:06:15.455Z,99700.13
2022-11-16T18:16:18.289Z,99695.13
2022-11-16T18:26:23.094Z,99694.64
2022-11-16T18:36:24.648Z,99691.52
2022-11-16T18:46:28.906Z,99697.55
2022-11-16T18:56:30.754Z,99703.77
2022-11-16T19:06:32.569Z,99696.02
2022-11-16T19:16:34.440Z,99700.90
2022-11-16T19:26:36.226Z,99702.29
2022-11-16T19:36:38.024Z,99712.80
2022-11-16T19:46:39.767Z,99717.27
2022-11-16T19:56:42.502Z,99717.61
2022-11-16T20:06:50.287Z,99714.21
2022-11-16T20:16:54.807Z,99721.80
2022-11-16T20:26:56.594Z,99718.04
2022-11-16T20:36:58.386Z,99718.20
2022-11-16T20:47:00.152Z,99714.23
2022-11-16T20:57:01.868Z,99716.08
2022-11-16T21:07:03.813Z,99717.48
2022-11-16T21:17:05.744Z,99715.91
2022-11-16T21:27:07.413Z,99713.99
2022-11-16T21:37:09.254Z,99715.17
2022-11-16T21:47:11.492Z,99704.81
2022-11-16T21:57:16.856Z,99705.36
2022-11-16T22:07:36.138Z,99704.83
2022-11-16T22:17:44.067Z,99703.63
2022-11-16T22:28:18.684Z,99703.30
2022-11-16T22:38:10.805Z,99698.81
2022-11-16T22:48:16.039Z,99701.55
2022-11-16T22:58:17.852Z,99699.84
2022-11-16T23:08:24.207Z,99702.77
2022-11-16T23:18:26.107Z,99702.45
2022-11-16T23:28:27.937Z,99699.89
2022-11-16T23:38:29.639Z,99704.73
2022-11-16T23:48:31.420Z,99710.63
2022-11-16T23:58:33.214Z,99707.73
